Terminal Aerodrome Forecast
Issued by NWS Tuscon, AZ

Home | Current Version | Previous Version | Text Only | Print | Product List | Glossary On
Versions: 1 2 3 4 5 6 7 8 9 10 11 12
000
FTUS45 KTWC 292300 RRA
TAFDUG
TAF
KDUG 292340Z 3000/3024 17008KT P6SM BKN250
     FM300300 35007KT P6SM BKN200
     FM301000 VRB04KT P6SM SCT120 OVC250
     FM301900 24011G18KT P6SM SCT060 BKN090=

USA.gov is the U.S. government's official web portal to all federal, state and local government web resources and services.